Oakland, Texas
Current Conditions -  °F | °C
As of 1:55 PM on Sunday 25 Jan 2015 (Local Time) from K66R Reporting Station
Clear Clear  
Wind Chill: 67°   Ceiling: Unl
Heat Index: 67°   Visibility: 10mi
Dew Point: 42°   Wind: 8mph
Humidity: 41%   Direction: 310°NW
Pressure: 30.08"   Gusts: NA
Location:  29.6°N, 96.83°W
Report Text: K66R 251955Z AUTO 31007KT 10SM CLR 19/06 A3008 RMK AO2 T01930056
Loading
Personal Weather Stations






























Interactive Weather Map New forecast layout! Learn more

10-Day Weather Forecast

Advertisements
Track Severe Weather on mobile